Startpagina
METAR-TAF:

METAR-TAF

Vliegvelden :

Moroni, Comoren

Luchthaven Prins Said Ibrahim

breedte: 11-32S, lengte: 043-16E, hoogte: 29 m

Actueel weer

Dit bericht is 1 uur en het 14 minuten geleden gemaakt, om 18:00 UTC
Wind 2 kt uit variabele richting
Temperatuur 26°C
Vochtigheid 54%
Druk 1016 hPa
Zicht 10 km of meer
Weinig wolken op 2000 ft

METAR: FMCH 211800Z VRB02KT 9999 FEW020 26/16 Q1016 NOSIG

Tijdstip: 22:14 (19:14 UTC)

Verwachting

Dit bericht is 2 uur en het 14 minuten geleden gemaakt, om 17:00 UTC
Verwachting geldig van 21 om 18 UTC tot 22 om 24 UTC
Wind 3 kt uit het oosten
Zicht 10 km of meer
Weinig wolken op 2000 ft
Wijzigt naar
van 22 om 04 UTC tot 22 om 06 UTC
Wind 14 kt uit het zuidzuidwesten
Wijzigt naar
van 22 om 15 UTC tot 22 om 17 UTC
Wind 3 kt uit het oosten

TAF: FMCH 211700Z 2118/2224 10003KT 9999 FEW020 BECMG 2204/2206 21014KT BECMG 2215/2217 09003KT

Waarnemingen en weersverwachtingen van meer dan 4000 vliegvelden (METAR en TAF).

De beschikbare stations zijn de gele en rode punten op de kaart.

Ga met uw muis naar het station om de naam te zien.

Klik dan om waarnemingen en weersverwachtingen te zien.

kaart wijzigen: klik op de groene knoppen met een zwart kruis om in te zoomen, op de groene knop met een streepje om uit te zoomen of op de groene pijlen voor aangrenzende kaarten.


METAR-TAF: